METAR AND TAF INFORMATION
METAR FOR EKBI
ADDS - METARS form results

(0245 UTC 01 June 2020)
Data provider http://aviationweather.gov/metar/data/
 
METAR text: EKBI 010220Z AUTO 11002KT 9999 NCD 04/03 Q1029
Conditions at: EKBI (BILLUND AIRPORT , DK) observed 0220 UTC 01 June 2020
Temperature: 4.0°C (39°F)
Dewpoint: 3.0°C (37°F) [RH = 93%]
Pressure (altimeter): 30.38 inches Hg (1029.0 mb)
Winds: from the ESE (110 degrees) at 2 MPH (2 knots; 1.0 m/s)
Visibility: 6 or more miles (10+ km)
Ceiling: at least 12,000 feet AGL
Clouds: sky clear below 12,000 feet AGL
Weather: no significant weather observed at this time

METAR text: EKBI 010150Z AUTO 13001KT 9999 NCD 05/05 Q1029
Conditions at: EKBI (BILLUND AIRPORT , DK) observed 0150 UTC 01 June 2020
Temperature: 5.0°C (41°F)
Dewpoint: 5.0°C (41°F) [RH = 100%]
Pressure (altimeter): 30.38 inches Hg (1029.0 mb)
Winds: from the SE (130 degrees) at 1 MPH (1 knots; 0.5 m/s)
Visibility: 6 or more miles (10+ km)
Ceiling: at least 12,000 feet AGL
Clouds: sky clear below 12,000 feet AGL
Weather: no significant weather observed at this time

Forecast for: EKBI (BILLUND AIRPORT , DK)
Text: TAF EKBI 312302Z 0100/0124 07005KT CAVOK
Forecast period: 0000 UTC 01 June 2020 to 0000 UTC 02 June 2020
Forecast type: FROM: standard forecast or significant change
Winds: from the ENE (70 degrees) at 6 MPH (5 knots; 2.6 m/s)
Visibility: 6 or more miles 10+ km)
Ceiling: unknown
Clouds: missing
Weather: NSW  (no significant weather)

 AIRPORT MAP

 RUNWAY INFORMATION
Runway 09 Runway length 10172 ft Runway width 148 ft
Runway elevation 215 ft Runway displaced threshold 492 ft Runway heading 87
Runway 27 Runway length 10172 ft Runway width 148 ft
Runway elevation 244 ft Runway displaced threshold 492 ft Runway heading 267

 AIRPORT FREQUENCIES
Type APP Name APP Frequency 127.575 MHZ
Type ATIS Name ATIS Frequency 118.775 MHZ
Type MISC Name CARGO HAND Frequency 122.075 MHZ
Type MISC Name HANDLING Frequency 130.85 MHZ
Type OPS Name ARPT OFFIC Frequency 131.5 MHZ
Type TWR Name TWR Frequency 119 MHZ

 AIRPORT NEAR NAVIGATION AIDS
Type NDB Name Billund Frequency 341 KHZ



Powered by Virtual Airlines Manager [v2.6.2]